Time;durP1;ratioP1;P1;durP2;ratioP2;P2;SDS_P1;SDS_P2;PMS_P1;PMS_P2;Temp;Humidity;BMP_temperature;BMP_pressure;BME280_temperature;BME280_humidity;BME280_pressure;Samples;Min_cycle;Max_cycle;Signal;HPM_P1;HPM_P2
2023/06/12 00:00:38;;;;;;;5.30;4.82;;;;;;;22.56;36.25;97001.44;4799611;29;20113;-79
2023/06/12 00:03:03;;;;;;;5.38;4.88;;;;;;;22.29;37.80;97004.66;4767986;29;20354;-79
2023/06/12 00:05:29;;;;;;;5.45;5.00;;;;;;;22.18;37.49;97007.69;4777400;29;20112;-79
2023/06/12 00:07:56;;;;;;;5.95;4.68;;;;;;;22.04;38.02;97010.59;4770299;29;20061;-80
2023/06/12 00:10:23;;;;;;;6.25;5.57;;;;;;;21.91;38.25;97016.16;4774049;29;20196;-80
2023/06/12 00:12:48;;;;;;;5.50;5.00;;;;;;;21.84;38.36;97004.16;4784697;29;20336;-79
2023/06/12 00:15:14;;;;;;;5.28;4.88;;;;;;;21.84;39.18;97021.94;4786292;29;20507;-80
2023/06/12 00:17:40;;;;;;;5.70;5.20;;;;;;;21.76;39.60;97015.59;4771174;29;20549;-80
2023/06/12 00:20:06;;;;;;;5.75;5.25;;;;;;;21.75;39.05;97011.41;4780276;29;20398;-81
2023/06/12 00:22:36;;;;;;;5.97;5.47;;;;;;;21.68;39.09;97016.44;4752773;29;20286;-80
2023/06/12 00:25:01;;;;;;;5.28;4.78;;;;;;;21.61;39.28;97016.94;4769799;29;20305;-81
2023/06/12 00:27:27;;;;;;;6.53;5.50;;;;;;;21.60;39.22;97020.69;4767505;29;20291;-80
2023/06/12 00:29:52;;;;;;;5.80;5.20;;;;;;;21.50;39.06;97015.75;4763093;29;20201;-80
2023/06/12 00:32:17;;;;;;;6.78;5.93;;;;;;;21.43;39.81;97012.78;4770243;29;20195;-80
2023/06/12 00:34:43;;;;;;;6.20;5.60;;;;;;;21.34;40.43;97007.53;4770772;29;20196;-80
2023/06/12 00:37:08;;;;;;;5.07;4.68;;;;;;;21.29;39.96;97013.78;4771831;29;20411;-80
2023/06/12 00:39:34;;;;;;;6.13;5.60;;;;;;;21.27;39.95;97004.59;4786145;29;20213;-80
2023/06/12 00:41:59;;;;;;;7.07;5.47;;;;;;;21.27;40.36;97015.19;4755110;29;20320;-83
2023/06/12 00:44:24;;;;;;;5.68;5.18;;;;;;;21.29;40.36;97018.31;4788080;29;20460;-80
2023/06/12 00:46:50;;;;;;;5.78;5.28;;;;;;;21.27;39.98;97009.91;4758084;29;20541;-80
2023/06/12 00:49:16;;;;;;;5.90;5.35;;;;;;;21.22;40.50;97012.72;4787062;29;20232;-80
2023/06/12 00:51:42;;;;;;;5.95;5.40;;;;;;;21.20;40.64;97017.53;4769467;29;20448;-80
2023/06/12 00:54:07;;;;;;;5.70;5.10;;;;;;;21.17;40.53;97010.25;4794459;29;20258;-80
2023/06/12 00:56:33;;;;;;;5.78;5.28;;;;;;;21.17;40.05;97023.50;4770307;29;20169;-81
2023/06/12 00:58:58;;;;;;;5.78;5.15;;;;;;;21.00;40.06;97011.84;4769469;29;20199;-80
2023/06/12 01:01:26;;;;;;;6.25;5.65;;;;;;;21.01;39.89;97012.63;4766137;29;20215;-80
2023/06/12 01:03:56;;;;;;;6.15;5.50;;;;;;;21.01;40.85;97007.31;4798118;23;20284;-79
2023/06/12 01:06:22;;;;;;;6.10;5.50;;;;;;;20.94;40.54;97018.44;4767318;29;20204;-81
2023/06/12 01:08:53;;;;;;;6.63;5.25;;;;;;;20.98;40.55;97016.69;4791443;29;20219;-80
2023/06/12 01:11:19;;;;;;;6.35;5.57;;;;;;;20.83;40.68;97019.84;4758924;29;20241;-79
2023/06/12 01:13:45;;;;;;;6.72;5.65;;;;;;;20.73;41.41;97013.81;4785604;29;20169;-79
2023/06/12 01:16:10;;;;;;;5.93;5.43;;;;;;;20.73;41.12;97018.28;4773844;29;20666;-80
2023/06/12 01:18:36;;;;;;;6.18;5.50;;;;;;;20.69;41.32;97012.84;4758686;29;20233;-79
2023/06/12 01:21:12;;;;;;;6.68;4.93;;;;;;;20.77;40.67;97013.94;4742412;29;20302;-79
2023/06/12 01:23:47;;;;;;;7.15;6.10;;;;;;;20.73;41.27;97024.38;4745040;29;20201;-79
2023/06/12 01:26:45;;;;;;;6.05;5.40;;;;;;;20.73;40.88;97015.66;4772470;29;20225;-79
2023/06/12 01:29:35;;;;;;;7.03;5.38;;;;;;;20.70;41.56;97017.06;4779579;29;20276;-79
2023/06/12 01:32:08;;;;;;;5.68;5.10;;;;;;;20.65;41.10;97011.94;4794295;29;20212;-81
2023/06/12 01:34:58;;;;;;;5.93;5.35;;;;;;;20.76;41.16;97015.78;4777162;29;20293;-81
2023/06/12 01:37:34;;;;;;;5.60;5.10;;;;;;;20.73;41.37;97013.81;4780185;29;20655;-80
2023/06/12 01:40:01;;;;;;;5.45;4.95;;;;;;;20.66;41.12;97012.72;4764635;29;20224;-79
2023/06/12 01:42:28;;;;;;;5.75;5.20;;;;;;;20.63;40.97;97016.78;4770337;29;20215;-79
2023/06/12 01:44:54;;;;;;;5.18;4.78;;;;;;;20.57;40.83;97020.63;4762225;29;20341;-80
2023/06/12 01:47:20;;;;;;;5.43;4.90;;;;;;;20.52;40.86;97012.84;4761107;29;20185;-79
2023/06/12 01:49:45;;;;;;;5.68;5.15;;;;;;;20.44;41.25;97011.00;4772287;29;20196;-80
2023/06/12 01:52:11;;;;;;;5.93;5.22;;;;;;;20.39;41.38;97015.34;4775795;29;20207;-81
2023/06/12 01:54:37;;;;;;;5.50;5.00;;;;;;;20.35;41.47;97009.13;4778539;29;20127;-76
2023/06/12 01:57:03;;;;;;;5.75;5.25;;;;;;;20.33;41.40;97010.53;4762322;29;20639;-79
2023/06/12 01:59:29;;;;;;;5.78;5.18;;;;;;;20.33;42.35;97010.53;4761473;29;20218;-78
2023/06/12 02:01:54;;;;;;;5.70;5.05;;;;;;;20.26;41.90;97000.44;4773776;29;20236;-78
2023/06/12 02:04:19;;;;;;;5.53;5.03;;;;;;;20.17;42.07;97003.06;4771000;29;20241;-81
2023/06/12 02:06:45;;;;;;;6.28;5.70;;;;;;;20.14;42.23;97008.97;4745253;29;20564;-78
2023/06/12 02:09:11;;;;;;;5.78;5.28;;;;;;;20.16;42.02;97006.78;4770764;29;20177;-78
2023/06/12 02:11:36;;;;;;;6.22;5.63;;;;;;;20.13;41.97;97009.28;4764195;29;20336;-80
2023/06/12 02:14:01;;;;;;;6.80;5.80;;;;;;;20.06;42.30;97003.69;4761551;29;20574;-80
2023/06/12 02:16:27;;;;;;;6.00;5.50;;;;;;;20.08;42.33;97004.16;4756455;29;20367;-78
2023/06/12 02:18:53;;;;;;;5.72;5.22;;;;;;;20.08;41.94;97004.16;4760936;29;20210;-79
2023/06/12 02:21:18;;;;;;;5.85;5.30;;;;;;;20.09;42.33;97003.84;4746099;29;20363;-80
2023/06/12 02:23:44;;;;;;;5.28;4.78;;;;;;;20.14;41.66;97010.84;4769580;29;20182;-81
2023/06/12 02:26:09;;;;;;;5.75;5.25;;;;;;;20.18;41.73;97009.13;4747532;29;20376;-80
2023/06/12 02:28:34;;;;;;;5.93;5.43;;;;;;;20.27;41.83;97023.13;4762998;29;20112;-81
2023/06/12 02:31:00;;;;;;;5.65;5.15;;;;;;;20.25;41.89;97006.78;4754242;29;20338;-81
2023/06/12 02:33:27;;;;;;;5.85;5.35;;;;;;;20.28;42.04;97011.47;4759133;29;20599;-81
2023/06/12 02:35:53;;;;;;;5.90;5.40;;;;;;;20.26;41.71;97018.16;4743564;29;20289;-80
2023/06/12 02:38:18;;;;;;;5.55;5.05;;;;;;;20.25;41.34;97013.94;4745587;29;20628;-80
2023/06/12 02:40:43;;;;;;;5.97;5.40;;;;;;;20.25;41.69;97017.38;4773463;29;20117;-80
2023/06/12 02:43:09;;;;;;;6.88;5.28;;;;;;;20.15;42.52;97021.09;4782416;29;20292;-80
2023/06/12 02:45:34;;;;;;;6.25;5.75;;;;;;;20.05;42.53;97020.63;4775617;29;20334;-80
2023/06/12 02:48:00;;;;;;;6.30;5.65;;;;;;;19.89;43.64;97023.69;4768715;29;20607;-80
2023/06/12 02:50:25;;;;;;;6.43;5.82;;;;;;;19.73;44.27;97022.56;4746834;29;20201;-80
2023/06/12 02:52:51;;;;;;;7.47;6.15;;;;;;;19.66;44.36;97025.66;4769967;29;20203;-80
2023/06/12 02:55:18;;;;;;;6.72;5.78;;;;;;;19.60;44.32;97017.09;4738017;29;20274;-80
2023/06/12 02:57:43;;;;;;;6.60;6.00;;;;;;;19.61;44.58;97018.66;4756604;29;20201;-80
2023/06/12 03:00:09;;;;;;;6.13;5.53;;;;;;;19.62;44.50;97025.50;4769332;29;20192;-81
2023/06/12 03:02:36;;;;;;;6.20;5.43;;;;;;;19.59;44.55;97025.34;4759015;29;20268;-82
2023/06/12 03:05:04;;;;;;;6.15;5.65;;;;;;;19.62;43.94;97028.13;4748011;29;20300;-82
2023/06/12 03:07:29;;;;;;;5.80;5.30;;;;;;;19.57;44.05;97028.28;4760117;29;20192;-81
2023/06/12 03:09:55;;;;;;;6.38;5.78;;;;;;;19.61;44.50;97034.50;4761245;29;20347;-80
2023/06/12 03:12:20;;;;;;;5.90;5.40;;;;;;;19.62;44.29;97032.63;4778025;29;20276;-80
2023/06/12 03:14:46;;;;;;;5.55;5.05;;;;;;;19.59;43.79;97034.03;4760179;29;20245;-80
2023/06/12 03:17:12;;;;;;;5.97;5.40;;;;;;;19.64;43.66;97044.44;4789406;29;20208;-80
2023/06/12 03:19:37;;;;;;;5.38;4.88;;;;;;;19.66;43.85;97044.16;4758374;29;20604;-81
2023/06/12 03:22:03;;;;;;;5.53;4.93;;;;;;;19.64;43.37;97049.72;4758899;29;20216;-80
2023/06/12 03:24:29;;;;;;;4.90;4.45;;;;;;;19.62;43.22;97045.81;4774496;29;20252;-80
2023/06/12 03:26:55;;;;;;;5.75;5.25;;;;;;;19.71;43.30;97054.56;4746261;29;20716;-80
2023/06/12 03:29:20;;;;;;;5.88;5.38;;;;;;;19.64;43.81;97046.31;4767453;29;20368;-80
2023/06/12 03:31:45;;;;;;;5.97;5.35;;;;;;;19.64;44.56;97059.53;4764008;29;20441;-80
2023/06/12 03:34:11;;;;;;;6.00;5.40;;;;;;;19.57;44.61;97057.31;4743645;29;20233;-80
2023/06/12 03:36:37;;;;;;;6.35;5.75;;;;;;;19.54;44.76;97054.53;4752440;29;20580;-80
2023/06/12 03:39:03;;;;;;;5.90;5.40;;;;;;;19.57;44.99;97070.53;4760868;29;20640;-82
2023/06/12 03:41:31;;;;;;;5.85;5.25;;;;;;;19.55;45.13;97058.69;4761410;29;20173;-80
2023/06/12 03:43:56;;;;;;;6.00;5.35;;;;;;;19.43;45.15;97062.72;4787923;29;20362;-80
2023/06/12 03:46:22;;;;;;;6.65;5.32;;;;;;;19.25;45.78;97053.91;4761425;29;20298;-80
2023/06/12 03:48:47;;;;;;;6.22;5.63;;;;;;;19.23;45.73;97061.38;4759266;29;20105;-82
2023/06/12 03:51:13;;;;;;;5.97;5.38;;;;;;;19.32;45.12;97065.91;4753641;29;20373;-81
2023/06/12 03:53:41;;;;;;;6.60;6.00;;;;;;;19.35;45.33;97073.22;4748741;29;20321;-82
2023/06/12 03:56:07;;;;;;;5.80;5.10;;;;;;;19.41;45.13;97072.00;4763556;29;20210;-80
2023/06/12 03:58:32;;;;;;;5.78;5.20;;;;;;;19.40;45.83;97065.19;4772808;29;20228;-80
2023/06/12 04:00:58;;;;;;;6.05;5.55;;;;;;;19.46;45.60;97070.00;4762156;29;20260;-81
2023/06/12 04:03:24;;;;;;;6.53;5.82;;;;;;;19.48;45.16;97069.69;4774410;29;20231;-80
2023/06/12 04:05:52;;;;;;;6.25;5.22;;;;;;;19.44;45.41;97047.63;4769471;29;20203;-80
2023/06/12 04:08:18;;;;;;;5.93;5.43;;;;;;;19.52;45.55;97078.59;4747933;29;20212;-82
2023/06/12 04:10:44;;;;;;;8.70;5.63;;;;;;;19.61;45.28;97065.41;4785452;29;20203;-80
2023/06/12 04:13:13;;;;;;;6.20;5.70;;;;;;;19.75;44.67;97071.38;4784316;29;20185;-79
2023/06/12 04:15:39;;;;;;;6.30;5.43;;;;;;;19.73;44.69;97075.41;4770921;29;20400;-80
2023/06/12 04:18:09;;;;;;;6.10;5.55;;;;;;;19.77;45.12;97068.44;4776922;29;20239;-82
2023/06/12 04:20:35;;;;;;;6.07;5.35;;;;;;;19.75;44.37;97073.25;4762283;29;20538;-80
2023/06/12 04:23:11;;;;;;;6.32;5.72;;;;;;;19.72;44.70;97082.53;4765278;29;20287;-80
2023/06/12 04:25:37;;;;;;;7.30;6.55;;;;;;;19.73;45.46;97084.09;4775735;29;20557;-80
2023/06/12 04:28:03;;;;;;;7.88;6.88;;;;;;;19.73;44.79;97084.09;4771463;29;20204;-80
2023/06/12 04:30:31;;;;;;;7.13;6.43;;;;;;;19.75;45.70;97089.09;4759288;29;20191;-80
2023/06/12 04:32:56;;;;;;;6.90;6.28;;;;;;;19.59;45.34;97089.50;4764701;29;20193;-80
2023/06/12 04:35:22;;;;;;;8.45;7.07;;;;;;;19.47;45.80;97091.94;4763610;29;20705;-80
2023/06/12 04:37:52;;;;;;;7.25;6.63;;;;;;;19.49;45.91;97089.75;4765957;29;20207;-80
2023/06/12 04:40:20;;;;;;;7.15;6.45;;;;;;;19.60;45.85;97095.53;4767860;29;20272;-80
2023/06/12 04:42:46;;;;;;;6.70;6.20;;;;;;;19.61;45.92;97087.31;4764550;29;20199;-80
2023/06/12 04:45:15;;;;;;;6.15;5.55;;;;;;;19.73;45.87;97093.91;4778742;29;20216;-81
2023/06/12 04:47:40;;;;;;;7.03;5.82;;;;;;;19.83;45.46;97091.00;4775680;29;20225;-80
2023/06/12 04:50:09;;;;;;;8.38;6.10;;;;;;;19.99;44.93;97086.84;4764653;29;20030;-81
2023/06/12 04:52:34;;;;;;;6.43;5.82;;;;;;;20.01;45.23;97082.03;4751430;29;20044;-81
2023/06/12 04:55:00;;;;;;;6.55;6.05;;;;;;;20.07;45.13;97082.66;4766876;29;20725;-82
2023/06/12 04:57:27;;;;;;;6.97;6.38;;;;;;;20.21;45.01;97087.81;4770419;29;20125;-81
2023/06/12 04:59:52;;;;;;;6.85;6.15;;;;;;;20.25;45.68;97087.97;4744017;29;20089;-81
2023/06/12 05:02:18;;;;;;;7.32;6.45;;;;;;;20.35;45.08;97083.16;4750516;29;20296;-81
2023/06/12 05:04:43;;;;;;;6.80;6.20;;;;;;;20.41;45.11;97083.81;4764874;29;20085;-81
2023/06/12 05:07:17;;;;;;;6.68;5.95;;;;;;;20.53;44.90;97081.31;4758455;29;20041;-80
2023/06/12 05:09:46;;;;;;;6.78;6.18;;;;;;;20.68;44.77;97085.41;4766991;29;20395;-82
2023/06/12 05:12:11;;;;;;;7.35;6.65;;;;;;;20.64;45.20;97078.38;4750284;29;20093;-81
2023/06/12 05:14:39;;;;;;;7.20;6.57;;;;;;;20.73;44.62;97077.31;4759733;29;20468;-81
2023/06/12 05:17:05;;;;;;;6.32;5.82;;;;;;;20.81;44.87;97074.94;4784283;29;20045;-80
2023/06/12 05:19:30;;;;;;;6.38;5.88;;;;;;;20.93;44.44;97088.31;4797320;29;20029;-81
2023/06/12 05:21:56;;;;;;;6.53;5.97;;;;;;;21.03;44.24;97079.28;4752031;29;20439;-81
2023/06/12 05:24:21;;;;;;;6.85;6.25;;;;;;;21.08;43.86;97082.53;4799127;29;20040;-82
2023/06/12 05:26:47;;;;;;;6.75;6.15;;;;;;;21.22;44.25;97081.56;4779655;29;20297;-80
2023/06/12 05:29:12;;;;;;;6.85;6.22;;;;;;;21.29;43.34;97084.50;4756381;29;20033;-83
2023/06/12 05:31:38;;;;;;;7.57;6.47;;;;;;;21.33;43.92;97072.19;4785594;29;20045;-80
2023/06/12 05:34:03;;;;;;;7.40;6.70;;;;;;;21.36;44.53;97090.09;4765947;29;20049;-80
2023/06/12 05:36:28;;;;;;;7.88;7.10;;;;;;;21.47;44.50;97087.91;4748317;29;20232;-80
2023/06/12 05:38:54;;;;;;;7.18;6.53;;;;;;;21.64;44.41;97089.69;4772165;29;20037;-78
2023/06/12 05:41:19;;;;;;;6.38;5.88;;;;;;;21.83;43.67;97092.75;4789399;29;20647;-81
2023/06/12 05:43:45;;;;;;;7.28;6.45;;;;;;;21.99;43.08;97097.50;4758211;29;20116;-79
2023/06/12 05:46:14;;;;;;;7.15;6.28;;;;;;;22.21;43.03;97099.09;4771267;29;20041;-81
2023/06/12 05:48:39;;;;;;;6.70;6.10;;;;;;;22.31;42.71;97098.75;4787705;29;20048;-79
2023/06/12 05:51:08;;;;;;;7.05;6.05;;;;;;;22.44;42.84;97094.28;4791351;29;20630;-80
2023/06/12 05:53:34;;;;;;;6.85;6.15;;;;;;;22.37;42.54;97083.41;4774486;29;20033;-80
2023/06/12 05:56:00;;;;;;;6.90;6.30;;;;;;;22.41;42.36;97086.94;4767652;29;20081;-79
2023/06/12 05:58:25;;;;;;;6.90;6.30;;;;;;;22.50;41.83;97081.56;4786745;29;20499;-78
2023/06/12 06:00:52;;;;;;;6.13;5.53;;;;;;;22.72;42.24;97091.06;4773384;29;20062;-79
2023/06/12 06:03:19;;;;;;;6.40;5.85;;;;;;;22.88;41.93;97093.94;4794551;29;20034;-78
2023/06/12 06:05:45;;;;;;;7.40;6.75;;;;;;;23.09;41.51;97096.56;4791816;29;20387;-79
2023/06/12 06:08:11;;;;;;;6.75;6.22;;;;;;;23.18;41.86;97086.63;4750394;29;20021;-80
2023/06/12 06:10:36;;;;;;;7.65;6.95;;;;;;;23.44;40.74;97099.63;4775966;29;20226;-79
2023/06/12 06:13:01;;;;;;;6.55;6.05;;;;;;;23.64;40.54;97102.53;4793064;29;20132;-80
2023/06/12 06:15:27;;;;;;;6.38;5.88;;;;;;;23.74;40.17;97102.09;4780880;29;20033;-79
2023/06/12 06:17:52;;;;;;;6.53;5.93;;;;;;;23.81;40.00;97102.31;4778826;29;20045;-80
2023/06/12 06:20:18;;;;;;;6.60;6.10;;;;;;;24.18;40.19;97120.13;4771439;29;20109;-79
2023/06/12 06:22:43;;;;;;;7.28;6.68;;;;;;;24.14;39.53;97108.63;4793904;29;20037;-79
2023/06/12 06:25:09;;;;;;;6.80;6.30;;;;;;;24.32;38.96;97109.94;4766724;29;20057;-80
2023/06/12 06:27:35;;;;;;;6.57;5.97;;;;;;;24.54;39.51;97110.53;4777408;29;20045;-79
2023/06/12 06:30:01;;;;;;;6.80;6.20;;;;;;;24.38;38.98;97115.78;4763689;29;20795;-80
2023/06/12 06:32:27;;;;;;;6.30;5.70;;;;;;;24.97;39.14;97109.09;4770026;29;20052;-80
2023/06/12 06:34:52;;;;;;;6.72;6.22;;;;;;;25.26;38.76;97107.19;4758514;29;20025;-78
2023/06/12 06:37:18;;;;;;;6.32;5.82;;;;;;;25.59;38.61;97102.31;4772379;29;20038;-78
2023/06/12 06:39:45;;;;;;;6.50;6.00;;;;;;;25.74;37.94;97114.09;4769636;29;20820;-79
2023/06/12 06:42:11;;;;;;;6.60;6.00;;;;;;;25.90;36.99;97123.97;4779863;29;20827;-78
2023/06/12 06:44:36;;;;;;;5.80;5.30;;;;;;;26.25;36.97;97123.25;4749301;29;20045;-79
2023/06/12 06:47:03;;;;;;;6.53;5.93;;;;;;;26.23;35.77;97120.91;4766124;29;20037;-79
2023/06/12 06:49:30;;;;;;;6.75;6.25;;;;;;;26.40;36.07;97119.75;4775916;29;20647;-80
2023/06/12 06:51:56;;;;;;;6.75;6.10;;;;;;;26.68;35.78;97119.59;4763981;29;20220;-79
2023/06/12 06:54:21;;;;;;;7.03;6.47;;;;;;;26.81;35.99;97122.13;4781285;29;20287;-78
2023/06/12 06:56:48;;;;;;;5.93;5.53;;;;;;;27.10;35.88;97112.75;4783077;29;20747;-79
2023/06/12 06:59:15;;;;;;;6.43;5.93;;;;;;;27.40;34.10;97120.16;4765316;29;20361;-79
2023/06/12 07:01:41;;;;;;;6.78;5.90;;;;;;;27.19;34.43;97115.19;4743581;29;20208;-78
2023/06/12 07:04:07;;;;;;;6.13;5.72;;;;;;;27.35;34.04;97118.56;4762720;29;20212;-78
2023/06/12 07:06:33;;;;;;;7.45;6.07;;;;;;;27.39;34.81;97114.03;4767483;29;20640;-79
2023/06/12 07:09:02;;;;;;;7.72;7.13;;;;;;;27.76;34.81;97105.47;4756689;29;20223;-81
2023/06/12 07:11:28;;;;;;;6.57;6.10;;;;;;;27.86;34.14;97114.00;4772277;29;20571;-80
2023/06/12 07:13:53;;;;;;;6.97;6.38;;;;;;;27.62;33.66;97113.25;4768328;29;20195;-79
2023/06/12 07:16:19;;;;;;;6.50;6.00;;;;;;;27.63;34.40;97106.78;4760137;29;20216;-80
2023/06/12 07:18:45;;;;;;;6.70;6.20;;;;;;;28.16;34.16;97114.88;4765602;29;20270;-79
2023/06/12 07:21:10;;;;;;;5.93;5.53;;;;;;;28.19;33.73;97119.50;4759202;29;20236;-77
2023/06/12 07:23:36;;;;;;;6.03;5.53;;;;;;;28.19;32.69;97100.75;4759036;29;20220;-79
2023/06/12 07:26:01;;;;;;;6.22;5.65;;;;;;;28.26;32.87;97110.00;4778238;29;20215;-79
2023/06/12 07:28:32;;;;;;;5.80;5.40;;;;;;;28.39;33.51;97095.25;4782222;29;20282;-80
2023/06/12 07:30:57;;;;;;;6.40;5.90;;;;;;;28.69;31.24;97103.31;4775284;29;20086;-79
2023/06/12 07:33:23;;;;;;;6.15;5.57;;;;;;;28.65;32.07;97096.34;4776235;29;20120;-79
2023/06/12 07:35:48;;;;;;;6.30;5.78;;;;;;;28.90;31.88;97102.00;4781531;29;20260;-79
2023/06/12 07:38:14;;;;;;;5.82;5.43;;;;;;;28.89;31.83;97101.25;4766496;29;20734;-81
2023/06/12 07:40:39;;;;;;;6.05;5.65;;;;;;;28.94;31.37;97100.13;4747843;29;20181;-80
2023/06/12 07:43:05;;;;;;;6.30;5.80;;;;;;;29.20;30.71;97101.16;4759531;29;20221;-79
2023/06/12 07:45:31;;;;;;;6.35;5.85;;;;;;;29.32;31.61;97100.88;4765329;29;20256;-77
2023/06/12 07:47:57;;;;;;;6.55;5.95;;;;;;;29.14;31.04;97101.47;4781918;29;20355;-78
2023/06/12 07:50:24;;;;;;;6.65;6.05;;;;;;;28.84;31.23;97106.13;4759521;29;20297;-77
2023/06/12 07:52:49;;;;;;;6.50;6.10;;;;;;;29.07;30.97;97103.34;4758692;29;20373;-79
2023/06/12 07:55:15;;;;;;;6.55;6.05;;;;;;;29.24;31.20;97102.75;4762589;29;20257;-80
2023/06/12 07:57:41;;;;;;;6.10;5.70;;;;;;;29.72;29.81;97093.19;4735251;29;20209;-79
2023/06/12 08:00:07;;;;;;;6.22;5.72;;;;;;;29.82;30.45;97093.28;4743638;29;20323;-79
2023/06/12 08:02:33;;;;;;;6.68;6.18;;;;;;;30.20;29.67;97087.75;4738364;29;20299;-79
2023/06/12 08:04:59;;;;;;;6.85;6.38;;;;;;;30.52;29.99;97095.19;4778280;29;20529;-78
2023/06/12 08:07:26;;;;;;;6.28;5.68;;;;;;;30.61;29.58;97093.69;4762080;29;20165;-79
2023/06/12 08:09:52;;;;;;;6.68;6.18;;;;;;;30.63;29.33;97090.63;4737402;29;20207;-78
2023/06/12 08:12:17;;;;;;;6.97;6.35;;;;;;;30.28;28.89;97086.66;4779611;29;20185;-78
2023/06/12 08:14:42;;;;;;;6.30;5.80;;;;;;;29.93;28.79;97087.97;4750378;29;20639;-79
2023/06/12 08:17:08;;;;;;;6.55;6.05;;;;;;;30.04;29.55;97083.44;4773452;29;20255;-79
2023/06/12 08:19:34;;;;;;;6.50;5.80;;;;;;;30.00;29.87;97092.63;4767019;29;20109;-79
2023/06/12 08:22:00;;;;;;;6.25;5.80;;;;;;;30.05;30.17;97090.34;4732969;29;20677;-78
2023/06/12 08:24:29;;;;;;;5.95;5.55;;;;;;;30.00;29.15;97093.38;4746842;29;20044;-80
2023/06/12 08:26:56;;;;;;;6.22;5.53;;;;;;;30.37;29.71;97094.38;4749266;29;20978;-79
2023/06/12 08:29:21;;;;;;;6.88;6.28;;;;;;;30.36;28.87;97093.59;4748482;29;20133;-79
2023/06/12 08:31:47;;;;;;;6.22;5.72;;;;;;;30.10;28.99;97091.16;4760904;29;20731;-78
2023/06/12 08:34:12;;;;;;;6.55;6.05;;;;;;;30.15;28.79;97094.25;4786164;29;20030;-78
2023/06/12 08:36:38;;;;;;;7.20;6.50;;;;;;;30.17;28.55;97093.88;4767119;29;20336;-80
2023/06/12 08:39:03;;;;;;;6.15;5.70;;;;;;;30.15;28.97;97090.78;4757905;29;20042;-80
2023/06/12 08:41:30;;;;;;;6.03;5.60;;;;;;;30.18;28.36;97098.09;4772720;29;20868;-79
2023/06/12 08:43:57;;;;;;;6.95;6.35;;;;;;;30.55;29.04;97083.69;4770633;29;20048;-81
2023/06/12 08:46:23;;;;;;;6.68;6.18;;;;;;;30.69;28.33;97083.75;4758235;29;20104;-80
2023/06/12 08:48:48;;;;;;;6.47;5.97;;;;;;;30.79;28.96;97088.41;4770445;29;20121;-78
2023/06/12 08:51:14;;;;;;;6.95;6.45;;;;;;;30.63;28.95;97088.72;4757859;29;20033;-79
2023/06/12 08:53:40;;;;;;;6.47;5.97;;;;;;;31.21;27.98;97082.75;4775251;29;20041;-78
2023/06/12 08:56:07;;;;;;;6.00;5.60;;;;;;;31.12;27.47;97078.50;4765585;29;20021;-79
2023/06/12 08:58:32;;;;;;;6.60;6.00;;;;;;;31.39;29.04;97080.81;4771945;29;20037;-79
2023/06/12 09:00:58;;;;;;;7.03;6.53;;;;;;;31.55;26.99;97089.28;4763123;29;20239;-79
2023/06/12 09:03:24;;;;;;;6.10;5.70;;;;;;;31.32;27.28;97084.25;4778476;29;20128;-79
2023/06/12 09:05:51;;;;;;;10.35;6.13;;;;;;;30.88;28.03;97073.81;4755378;29;20108;-79
2023/06/12 09:08:16;;;;;;;6.45;5.90;;;;;;;31.26;27.06;97072.34;4753465;29;20042;-80
2023/06/12 09:10:42;;;;;;;6.32;5.78;;;;;;;31.04;26.69;97070.81;4771968;29;20519;-79
2023/06/12 09:13:12;;;;;;;7.57;6.10;;;;;;;31.15;27.05;97071.56;4769322;29;20045;-77
2023/06/12 09:15:38;;;;;;;6.07;5.40;;;;;;;30.76;27.09;97081.09;4787551;29;20037;-78
2023/06/12 09:18:09;;;;;;;6.43;5.90;;;;;;;31.04;26.40;97087.69;4774114;29;20042;-76
2023/06/12 09:20:36;;;;;;;6.30;5.80;;;;;;;30.59;27.74;97081.81;4769869;29;20793;-77
2023/06/12 09:23:02;;;;;;;6.85;6.30;;;;;;;30.65;27.05;97082.97;4769515;29;20051;-78
2023/06/12 09:25:33;;;;;;;6.28;5.78;;;;;;;31.04;26.85;97078.88;4769368;29;20029;-77
2023/06/12 09:27:59;;;;;;;6.78;6.28;;;;;;;31.39;26.31;97078.09;4749624;29;20497;-77
2023/06/12 09:30:24;;;;;;;6.45;5.95;;;;;;;31.97;26.66;97078.09;4754840;29;20029;-77
2023/06/12 09:32:51;;;;;;;6.60;6.10;;;;;;;32.19;24.85;97076.91;4786001;29;20053;-77
2023/06/12 09:35:17;;;;;;;7.15;6.57;;;;;;;31.92;24.98;97068.47;4774726;29;20321;-78
2023/06/12 09:37:42;;;;;;;7.13;6.45;;;;;;;32.05;26.20;97085.00;4753568;29;20029;-78
2023/06/12 09:40:14;;;;;;;6.65;6.05;;;;;;;31.42;25.09;97085.41;4752935;29;20037;-77
2023/06/12 09:42:41;;;;;;;8.18;7.35;;;;;;;31.94;26.78;97074.22;4755075;29;20041;-78
2023/06/12 09:45:20;;;;;;;6.63;6.07;;;;;;;32.18;26.51;97082.66;4768267;29;20040;-78
2023/06/12 09:47:53;;;;;;;6.90;6.30;;;;;;;32.41;23.06;97074.91;4768368;29;20045;-78
2023/06/12 09:50:21;;;;;;;6.50;6.00;;;;;;;32.33;24.49;97065.28;4767229;29;20116;-77
2023/06/12 09:52:47;;;;;;;7.00;6.50;;;;;;;32.37;24.18;97059.88;4755096;29;20597;-77
2023/06/12 09:55:15;;;;;;;7.07;6.47;;;;;;;32.05;25.75;97064.25;4774831;29;20037;-78
2023/06/12 09:57:43;;;;;;;6.57;6.05;;;;;;;32.29;26.10;97059.94;4790415;29;20037;-77
2023/06/12 10:00:11;;;;;;;6.90;6.22;;;;;;;32.78;25.27;97054.72;4756476;29;20042;-78
2023/06/12 10:02:44;;;;;;;6.40;5.90;;;;;;;32.96;23.88;97061.94;4742889;29;20688;-78
2023/06/12 10:05:34;;;;;;;7.07;6.43;;;;;;;32.53;24.19;97076.38;4774736;29;20072;-78
2023/06/12 10:08:01;;;;;;;6.55;5.97;;;;;;;32.60;23.43;97070.97;4772175;29;20034;-76
2023/06/12 10:10:27;;;;;;;6.93;6.32;;;;;;;32.05;23.44;97075.00;4778110;29;20038;-77
2023/06/12 10:12:54;;;;;;;7.45;6.60;;;;;;;32.58;24.53;97073.28;4766148;29;20631;-77
2023/06/12 10:15:19;;;;;;;6.30;5.80;;;;;;;32.77;23.69;97069.34;4738317;29;20263;-77
2023/06/12 10:17:46;;;;;;;7.15;6.55;;;;;;;32.99;23.24;97071.94;4759201;29;20945;-77
2023/06/12 10:20:12;;;;;;;6.90;6.30;;;;;;;32.56;24.12;97072.91;4782403;29;20029;-78
2023/06/12 10:22:38;;;;;;;6.90;6.32;;;;;;;32.52;23.03;97066.75;4767763;29;20164;-78
2023/06/12 10:25:05;;;;;;;7.38;6.47;;;;;;;32.40;22.30;97070.66;4752854;29;20822;-77
2023/06/12 10:27:31;;;;;;;6.90;6.40;;;;;;;32.26;22.01;97068.78;4740431;29;20102;-78
2023/06/12 10:29:58;;;;;;;7.55;6.95;;;;;;;32.46;23.15;97076.44;4765575;29;20277;-77
2023/06/12 10:32:24;;;;;;;6.93;6.43;;;;;;;32.85;22.81;97056.59;4750000;29;20029;-78
2023/06/12 10:34:53;;;;;;;7.30;6.80;;;;;;;33.33;23.01;97058.59;4784240;29;20386;-78
2023/06/12 10:37:23;;;;;;;7.38;6.78;;;;;;;33.78;23.75;97063.25;4783090;29;20610;-78
2023/06/12 10:40:00;;;;;;;7.65;7.00;;;;;;;34.25;24.59;97060.81;4768223;29;20068;-77
2023/06/12 10:42:39;;;;;;;7.15;6.65;;;;;;;34.23;22.08;97051.59;4781621;29;20041;-78
2023/06/12 10:45:22;;;;;;;7.80;6.30;;;;;;;33.85;22.08;97046.19;4779054;29;20886;-77
2023/06/12 10:50:42;;;;;;;7.18;6.57;;;;;;;31.72;24.78;97027.75;4779786;29;20037;-78
2023/06/12 10:53:08;;;;;;;6.85;6.30;;;;;;;31.16;24.83;97041.59;4776188;29;20803;-78
2023/06/12 10:55:35;;;;;;;6.55;5.95;;;;;;;31.26;25.65;97039.31;4766735;29;20032;-77
2023/06/12 10:58:07;;;;;;;7.00;6.40;;;;;;;31.53;25.53;97034.31;4764274;29;20044;-78
2023/06/12 11:00:36;;;;;;;7.20;6.63;;;;;;;31.44;25.62;97029.28;4766581;29;20338;-77
2023/06/12 11:03:06;;;;;;;7.43;6.68;;;;;;;31.71;25.74;97035.06;4771148;29;20090;-77
2023/06/12 11:05:33;;;;;;;7.25;6.57;;;;;;;31.11;25.46;97038.53;4751300;29;20033;-77
2023/06/12 11:08:04;;;;;;;7.38;6.70;;;;;;;30.91;25.80;97046.91;4763642;29;20041;-78
2023/06/12 11:10:30;;;;;;;7.53;6.93;;;;;;;30.59;25.65;97033.44;4755526;29;20064;-77
2023/06/12 11:12:57;;;;;;;7.00;6.40;;;;;;;30.03;26.56;97038.94;4765475;29;20667;-76
2023/06/12 11:15:22;;;;;;;7.53;6.80;;;;;;;30.10;26.39;97027.47;4770896;29;20038;-76
2023/06/12 11:17:49;;;;;;;7.22;6.60;;;;;;;30.78;26.55;97026.94;4769146;29;20085;-76
2023/06/12 11:20:18;;;;;;;8.07;7.43;;;;;;;30.61;26.20;97029.22;4749191;29;20033;-78
2023/06/12 11:22:46;;;;;;;7.25;6.65;;;;;;;31.44;25.78;97023.16;4745854;29;20037;-76
2023/06/12 11:25:11;;;;;;;7.88;6.97;;;;;;;31.09;25.37;97025.47;4781173;29;20038;-76
2023/06/12 11:27:37;;;;;;;7.90;7.10;;;;;;;30.84;26.09;97022.72;4764959;29;20029;-76
2023/06/12 11:30:15;;;;;;;7.53;6.93;;;;;;;30.88;26.73;97020.81;4773819;29;20025;-77
2023/06/12 11:32:41;;;;;;;7.50;6.90;;;;;;;30.73;27.30;97025.41;4771723;29;20116;-76
2023/06/12 11:35:09;;;;;;;7.82;6.82;;;;;;;30.49;27.04;97020.75;4779786;29;20698;-77